createdAt,value
2022-10-17T00:00:49.026Z,18.90
2022-10-17T00:03:18.787Z,18.90
2022-10-17T00:05:48.352Z,18.90
2022-10-17T00:08:18.161Z,18.90
2022-10-17T00:10:46.147Z,18.90
2022-10-17T00:13:13.461Z,18.80
2022-10-17T00:15:44.955Z,18.80
2022-10-17T00:18:13.817Z,18.80
2022-10-17T00:20:41.303Z,18.80
2022-10-17T00:23:08.626Z,18.80
2022-10-17T00:25:37.017Z,18.80
2022-10-17T00:28:04.363Z,18.80
2022-10-17T00:30:32.825Z,18.80
2022-10-17T00:33:00.161Z,18.80
2022-10-17T00:35:27.548Z,18.80
2022-10-17T00:37:54.856Z,18.70
2022-10-17T00:40:23.102Z,18.70
2022-10-17T00:42:53.033Z,18.70
2022-10-17T00:45:22.599Z,18.70
2022-10-17T00:48:04.752Z,18.70
2022-10-17T00:50:32.349Z,18.70
2022-10-17T00:53:02.797Z,18.70
2022-10-17T00:55:35.648Z,18.70
2022-10-17T00:58:05.016Z,18.70
2022-10-17T01:00:32.553Z,18.70
2022-10-17T01:02:59.832Z,18.70
2022-10-17T01:05:29.740Z,18.70
2022-10-17T01:07:57.359Z,18.70
2022-10-17T01:10:29.943Z,18.70
2022-10-17T01:13:09.385Z,18.70
2022-10-17T01:15:41.401Z,18.60
2022-10-17T01:18:37.057Z,18.60
2022-10-17T01:21:39.536Z,18.60
2022-10-17T01:24:27.126Z,18.60
2022-10-17T01:27:13.646Z,18.60
2022-10-17T01:30:05.740Z,18.60
2022-10-17T01:32:37.716Z,18.60
2022-10-17T01:35:20.122Z,18.60
2022-10-17T01:38:04.022Z,18.60
2022-10-17T01:40:58.806Z,18.60
2022-10-17T01:43:49.529Z,18.60
2022-10-17T01:46:37.393Z,18.60
2022-10-17T01:49:09.812Z,18.60
2022-10-17T01:51:42.044Z,18.60
2022-10-17T01:54:41.485Z,18.60
2022-10-17T01:57:15.416Z,18.60
2022-10-17T01:59:46.556Z,18.60
2022-10-17T02:02:15.601Z,18.60
2022-10-17T02:04:48.564Z,18.50
2022-10-17T02:07:16.330Z,18.50
2022-10-17T02:09:44.079Z,18.50
2022-10-17T02:12:54.259Z,18.50
2022-10-17T02:15:33.572Z,18.50
2022-10-17T02:18:18.869Z,18.50
2022-10-17T02:20:59.304Z,18.50
2022-10-17T02:23:57.035Z,18.50
2022-10-17T02:26:35.479Z,18.50
2022-10-17T02:29:20.189Z,18.50
2022-10-17T02:31:56.124Z,18.50
2022-10-17T02:34:31.658Z,18.50
2022-10-17T02:37:05.123Z,18.40
2022-10-17T02:39:34.968Z,18.40
2022-10-17T02:42:05.316Z,18.40
2022-10-17T02:44:33.697Z,18.40
2022-10-17T02:47:16.625Z,18.40
2022-10-17T02:49:49.267Z,18.40
2022-10-17T02:52:27.047Z,18.40
2022-10-17T02:55:12.092Z,18.40
2022-10-17T02:57:44.755Z,18.40
2022-10-17T03:00:16.057Z,18.40
2022-10-17T03:02:48.828Z,18.40
2022-10-17T03:05:22.977Z,18.40
2022-10-17T03:07:50.931Z,18.40
2022-10-17T03:10:18.773Z,18.30
2022-10-17T03:12:46.362Z,18.30
2022-10-17T03:15:14.710Z,18.30
2022-10-17T03:17:42.974Z,18.20
2022-10-17T03:20:11.229Z,18.20
2022-10-17T03:22:38.496Z,18.10
2022-10-17T03:25:06.952Z,18.10
2022-10-17T03:27:36.290Z,18.10
2022-10-17T03:30:07.265Z,18.10
2022-10-17T03:32:35.932Z,18.10
2022-10-17T03:35:03.648Z,18.10
2022-10-17T03:37:31.372Z,18.00
2022-10-17T03:39:59.786Z,18.00
2022-10-17T03:42:27.081Z,18.00
2022-10-17T03:44:54.431Z,18.00
2022-10-17T03:47:21.787Z,18.00
2022-10-17T03:49:49.379Z,17.90
2022-10-17T03:52:16.714Z,17.90
2022-10-17T03:54:44.118Z,17.80
2022-10-17T03:57:11.518Z,17.80
2022-10-17T03:59:38.950Z,17.80
2022-10-17T04:02:12.681Z,17.80
2022-10-17T04:04:40.033Z,17.70
2022-10-17T04:07:07.599Z,17.70
2022-10-17T04:09:37.363Z,17.70
2022-10-17T04:12:23.228Z,17.70
2022-10-17T04:14:50.735Z,17.70
2022-10-17T04:17:20.873Z,17.70
2022-10-17T04:19:49.736Z,17.70
2022-10-17T04:22:18.416Z,17.70
2022-10-17T04:24:45.846Z,17.70
2022-10-17T04:27:39.521Z,17.70
2022-10-17T04:30:07.748Z,17.60
2022-10-17T04:32:39.289Z,17.60
2022-10-17T04:35:21.183Z,17.60
2022-10-17T04:37:54.471Z,17.60
2022-10-17T04:40:21.967Z,17.60
2022-10-17T04:42:54.820Z,17.60
2022-10-17T04:45:30.046Z,17.60
2022-10-17T04:48:01.020Z,17.60
2022-10-17T04:50:28.558Z,17.60
2022-10-17T04:53:27.148Z,17.60
2022-10-17T04:55:55.224Z,17.50
2022-10-17T04:58:23.129Z,17.50
2022-10-17T05:00:51.801Z,17.50
2022-10-17T05:03:29.060Z,17.50
2022-10-17T05:05:56.627Z,17.50
2022-10-17T05:08:24.177Z,17.50
2022-10-17T05:10:51.642Z,17.50
2022-10-17T05:13:20.505Z,17.50
2022-10-17T05:15:48.001Z,17.50
2022-10-17T05:18:16.532Z,17.40
2022-10-17T05:20:44.855Z,17.40
2022-10-17T05:23:15.281Z,17.40
2022-10-17T05:25:43.911Z,17.40
2022-10-17T05:28:12.087Z,17.40
2022-10-17T05:30:41.350Z,17.40
2022-10-17T05:33:09.693Z,17.40
2022-10-17T05:35:39.959Z,17.40
2022-10-17T05:38:07.676Z,17.50
2022-10-17T05:40:36.241Z,17.50
2022-10-17T05:43:03.645Z,17.60
2022-10-17T05:45:31.436Z,17.50
2022-10-17T05:47:59.602Z,17.50
2022-10-17T05:50:27.094Z,17.50
2022-10-17T05:53:08.690Z,17.50
2022-10-17T05:55:41.858Z,17.50
2022-10-17T05:58:17.779Z,17.60
2022-10-17T06:01:02.736Z,17.50
2022-10-17T06:03:30.856Z,17.50
2022-10-17T06:06:13.776Z,17.60
2022-10-17T06:08:44.868Z,17.60
2022-10-17T06:11:15.881Z,17.60
2022-10-17T06:13:43.293Z,17.60
2022-10-17T06:16:15.759Z,17.60
2022-10-17T06:18:43.115Z,17.60
2022-10-17T06:21:12.510Z,17.50
2022-10-17T06:23:44.861Z,17.50
2022-10-17T06:26:20.192Z,17.60
2022-10-17T06:28:48.945Z,17.70
2022-10-17T06:31:17.334Z,17.60
2022-10-17T06:33:44.630Z,17.70
2022-10-17T06:36:13.925Z,17.70
2022-10-17T06:38:42.014Z,17.70
2022-10-17T06:41:19.352Z,17.70
2022-10-17T06:43:47.697Z,17.80
2022-10-17T06:46:30.121Z,17.80
2022-10-17T06:49:09.898Z,17.90
2022-10-17T06:51:43.842Z,17.90
2022-10-17T06:54:14.091Z,17.90
2022-10-17T06:56:50.114Z,18.00
2022-10-17T06:59:49.811Z,18.00
2022-10-17T07:02:23.646Z,18.10
2022-10-17T07:04:51.973Z,18.10
2022-10-17T07:07:19.787Z,18.20
2022-10-17T07:09:51.702Z,18.20
2022-10-17T07:12:20.560Z,18.30
2022-10-17T07:14:50.197Z,18.30
2022-10-17T07:17:18.885Z,18.30
2022-10-17T07:19:47.053Z,18.40
2022-10-17T07:22:14.484Z,18.50
2022-10-17T07:24:45.422Z,18.50
2022-10-17T07:27:25.237Z,18.60
2022-10-17T07:29:53.203Z,18.70
2022-10-17T07:32:55.513Z,18.80
2022-10-17T07:35:22.983Z,18.80
2022-10-17T07:37:51.328Z,18.80
2022-10-17T07:40:20.868Z,18.80
2022-10-17T07:42:48.376Z,18.90
2022-10-17T07:45:16.217Z,19.00
2022-10-17T07:47:44.596Z,19.00
2022-10-17T07:50:15.659Z,19.10
2022-10-17T07:52:43.342Z,19.20
2022-10-17T07:55:12.684Z,19.30
2022-10-17T07:57:41.445Z,19.40
2022-10-17T08:00:09.648Z,19.50
2022-10-17T08:02:40.121Z,19.50
2022-10-17T08:05:07.869Z,19.60
2022-10-17T08:07:35.206Z,19.70
2022-10-17T08:10:02.665Z,19.80
2022-10-17T08:12:32.845Z,19.80
2022-10-17T08:15:01.317Z,19.90
2022-10-17T08:17:28.674Z,20.00
2022-10-17T08:19:56.027Z,20.00
2022-10-17T08:22:23.570Z,20.10
2022-10-17T08:24:50.907Z,20.20
2022-10-17T08:27:23.856Z,20.20
2022-10-17T08:29:54.775Z,20.20
2022-10-17T08:32:25.815Z,20.30
2022-10-17T08:34:54.074Z,20.40
2022-10-17T08:37:22.587Z,20.50
2022-10-17T08:39:49.878Z,20.60
2022-10-17T08:42:17.401Z,20.70
2022-10-17T08:44:53.456Z,20.80
2022-10-17T08:47:33.886Z,20.80
2022-10-17T08:50:04.141Z,20.90
2022-10-17T08:52:45.964Z,21.00
2022-10-17T08:57:52.205Z,21.10
2022-10-17T09:00:21.579Z,21.20
2022-10-17T09:03:17.295Z,21.20
2022-10-17T09:06:11.053Z,21.40
2022-10-17T09:08:38.354Z,21.50
2022-10-17T09:11:47.651Z,21.50
2022-10-17T09:14:26.809Z,21.60
2022-10-17T09:17:12.697Z,21.80
2022-10-17T09:19:52.078Z,21.80
2022-10-17T09:22:24.856Z,21.90
2022-10-17T09:24:59.548Z,22.10
2022-10-17T09:27:44.808Z,22.20
2022-10-17T09:30:51.808Z,22.30
2022-10-17T09:33:35.093Z,22.30
2022-10-17T09:36:34.187Z,22.30
2022-10-17T09:39:05.265Z,22.40
2022-10-17T09:41:46.875Z,22.50
2022-10-17T09:44:17.901Z,22.60
2022-10-17T09:47:13.288Z,22.70
2022-10-17T09:49:47.688Z,22.80
2022-10-17T09:52:16.844Z,22.90
2022-10-17T09:54:54.866Z,23.10
2022-10-17T09:57:22.964Z,23.20
2022-10-17T10:00:06.142Z,23.30
2022-10-17T10:02:40.985Z,23.50
2022-10-17T10:05:20.232Z,23.70
2022-10-17T10:08:15.394Z,24.00
2022-10-17T10:10:44.055Z,24.40
2022-10-17T10:13:14.150Z,25.00
2022-10-17T10:15:49.795Z,26.30
2022-10-17T10:18:35.877Z,27.90
2022-10-17T10:21:23.889Z,29.70
2022-10-17T10:24:12.322Z,31.10
2022-10-17T10:26:46.629Z,32.20
2022-10-17T10:29:37.062Z,33.00
2022-10-17T10:32:19.190Z,33.60
2022-10-17T10:35:21.772Z,34.20
2022-10-17T10:37:57.600Z,34.30
2022-10-17T10:40:45.125Z,34.80
2022-10-17T10:43:27.647Z,34.80
2022-10-17T10:45:55.154Z,33.80
2022-10-17T10:48:30.236Z,34.20
2022-10-17T10:51:19.625Z,34.90
2022-10-17T10:53:59.529Z,35.20
2022-10-17T10:56:42.667Z,36.00
2022-10-17T10:59:33.209Z,36.20
2022-10-17T11:02:12.689Z,36.10
2022-10-17T11:04:46.508Z,36.10
2022-10-17T11:07:20.310Z,36.10
2022-10-17T11:10:22.877Z,36.90
2022-10-17T11:12:58.495Z,37.60
2022-10-17T11:16:02.203Z,37.70
2022-10-17T11:18:44.693Z,37.60
2022-10-17T11:21:56.866Z,38.00
2022-10-17T11:24:28.000Z,38.60
2022-10-17T11:27:00.544Z,39.00
2022-10-17T11:29:33.110Z,39.00
2022-10-17T11:32:12.777Z,38.90
2022-10-17T11:34:47.459Z,38.50
2022-10-17T11:37:32.103Z,38.60
2022-10-17T11:40:08.461Z,39.10
2022-10-17T11:42:52.882Z,39.60
2022-10-17T11:45:24.247Z,40.00
2022-10-17T11:48:11.332Z,40.10
2022-10-17T11:53:53.934Z,40.50
2022-10-17T11:56:42.667Z,40.40
2022-10-17T11:59:48.915Z,41.00
2022-10-17T12:02:37.288Z,41.10
2022-10-17T12:05:28.973Z,41.00
2022-10-17T12:08:10.183Z,40.70
2022-10-17T12:10:44.009Z,40.80
2022-10-17T12:13:30.247Z,40.90
2022-10-17T12:16:19.602Z,41.00
2022-10-17T12:19:06.267Z,41.00
2022-10-17T12:22:01.953Z,40.70
2022-10-17T12:24:38.828Z,40.30
2022-10-17T12:27:37.531Z,40.20
2022-10-17T12:30:20.675Z,39.70
2022-10-17T12:33:23.575Z,39.30
2022-10-17T12:35:52.253Z,38.70
2022-10-17T12:38:27.066Z,38.00
2022-10-17T12:40:56.569Z,36.80
2022-10-17T12:43:29.992Z,35.30
2022-10-17T12:46:02.640Z,33.90
2022-10-17T12:48:39.352Z,32.80
2022-10-17T12:51:35.223Z,31.80
2022-10-17T12:54:13.972Z,31.10
2022-10-17T12:56:47.567Z,30.40
2022-10-17T12:59:25.199Z,30.10
2022-10-17T13:01:56.361Z,29.70
2022-10-17T13:04:24.542Z,29.40
2022-10-17T13:06:56.261Z,29.10
2022-10-17T13:09:28.645Z,29.00
2022-10-17T13:11:59.799Z,28.80
2022-10-17T13:14:28.473Z,28.60
2022-10-17T13:16:58.972Z,28.40
2022-10-17T13:19:39.975Z,28.40
2022-10-17T13:22:20.920Z,28.20
2022-10-17T13:24:49.608Z,28.00
2022-10-17T13:27:28.663Z,28.00
2022-10-17T13:29:57.813Z,27.90
2022-10-17T13:32:34.689Z,27.80
2022-10-17T13:35:22.066Z,27.70
2022-10-17T13:37:54.161Z,27.60
2022-10-17T13:43:20.956Z,27.30
2022-10-17T13:45:51.509Z,27.20
2022-10-17T13:48:30.700Z,27.10
2022-10-17T13:51:03.131Z,27.00
2022-10-17T13:53:34.081Z,27.00
2022-10-17T13:56:29.188Z,26.90
2022-10-17T13:59:22.174Z,26.80
2022-10-17T14:01:52.106Z,26.80
2022-10-17T14:04:20.556Z,26.70
2022-10-17T14:06:49.560Z,26.60
2022-10-17T14:09:28.282Z,26.60
2022-10-17T14:12:03.126Z,26.50
2022-10-17T14:14:46.046Z,26.50
2022-10-17T14:17:28.910Z,26.40
2022-10-17T14:20:26.511Z,26.40
2022-10-17T14:23:17.555Z,26.30
2022-10-17T14:25:40.797Z,26.20
2022-10-17T14:28:11.783Z,26.10
2022-10-17T14:31:02.973Z,25.90
2022-10-17T14:33:31.895Z,25.90
2022-10-17T14:36:01.756Z,25.90
2022-10-17T14:38:30.217Z,25.80
2022-10-17T14:41:41.392Z,25.80
2022-10-17T14:44:06.928Z,25.70
2022-10-17T14:46:38.883Z,25.70
2022-10-17T14:49:15.313Z,25.70
2022-10-17T14:52:18.538Z,25.60
2022-10-17T14:54:48.392Z,25.60
2022-10-17T14:57:19.450Z,25.60
2022-10-17T14:59:55.338Z,25.50
2022-10-17T15:02:28.782Z,25.50
2022-10-17T15:04:56.456Z,25.40
2022-10-17T15:07:24.251Z,25.40
2022-10-17T15:09:53.504Z,25.40
2022-10-17T15:12:23.525Z,25.30
2022-10-17T15:14:51.839Z,25.30
2022-10-17T15:17:26.728Z,25.30
2022-10-17T15:19:54.776Z,25.30
2022-10-17T15:22:22.618Z,25.20
2022-10-17T15:24:50.142Z,25.10
2022-10-17T15:27:22.792Z,25.10
2022-10-17T15:29:51.686Z,25.00
2022-10-17T15:32:19.220Z,25.00
2022-10-17T15:34:46.569Z,25.00
2022-10-17T15:37:25.322Z,24.90
2022-10-17T15:39:55.117Z,24.90
2022-10-17T15:42:27.580Z,24.80
2022-10-17T15:44:55.648Z,24.80
2022-10-17T15:47:28.082Z,24.80
2022-10-17T15:49:55.973Z,24.70
2022-10-17T15:52:24.294Z,24.70
2022-10-17T15:54:52.506Z,24.60
2022-10-17T15:57:26.041Z,24.60
2022-10-17T15:59:55.551Z,24.60
2022-10-17T16:02:23.852Z,24.50
2022-10-17T16:04:52.201Z,24.50
2022-10-17T16:07:20.326Z,24.50
2022-10-17T16:09:47.819Z,24.40
2022-10-17T16:12:27.712Z,24.40
2022-10-17T16:14:55.546Z,24.30
2022-10-17T16:17:22.867Z,24.20
2022-10-17T16:19:50.197Z,24.10
2022-10-17T16:22:28.960Z,24.00
2022-10-17T16:24:59.163Z,24.00
2022-10-17T16:27:26.561Z,23.90
2022-10-17T16:29:53.918Z,23.90
2022-10-17T16:32:21.308Z,23.80
2022-10-17T16:34:48.676Z,23.80
2022-10-17T16:37:16.028Z,23.70
2022-10-17T16:39:43.433Z,23.70
2022-10-17T16:42:10.769Z,23.60
2022-10-17T16:44:38.080Z,23.60
2022-10-17T16:47:05.351Z,23.50
2022-10-17T16:49:32.630Z,23.50
2022-10-17T16:51:59.928Z,23.40
2022-10-17T16:54:27.371Z,23.40
2022-10-17T16:56:54.728Z,23.30
2022-10-17T16:59:22.144Z,23.30
2022-10-17T17:01:49.703Z,23.20
2022-10-17T17:04:17.419Z,23.10
2022-10-17T17:09:17.152Z,23.00
2022-10-17T17:11:44.583Z,23.00
2022-10-17T17:14:12.634Z,22.90
2022-10-17T17:16:39.945Z,22.90
2022-10-17T17:19:11.311Z,22.80
2022-10-17T17:21:39.658Z,22.80
2022-10-17T17:24:07.058Z,22.70
2022-10-17T17:26:39.041Z,22.70
2022-10-17T17:29:06.365Z,22.60
2022-10-17T17:31:35.356Z,22.60
2022-10-17T17:34:03.330Z,22.60
2022-10-17T17:36:33.405Z,22.50
2022-10-17T17:39:04.013Z,22.50
2022-10-17T17:41:32.187Z,22.40
2022-10-17T17:44:00.643Z,22.40
2022-10-17T17:46:28.067Z,22.30
2022-10-17T17:48:56.071Z,22.30
2022-10-17T17:51:28.428Z,22.20
2022-10-17T17:53:56.956Z,22.20
2022-10-17T17:56:27.374Z,22.20
2022-10-17T17:58:58.004Z,22.20
2022-10-17T18:01:28.370Z,22.20
2022-10-17T18:03:58.923Z,22.10
2022-10-17T18:06:27.530Z,22.10
2022-10-17T18:08:57.994Z,22.10
2022-10-17T18:11:27.173Z,22.10
2022-10-17T18:14:00.138Z,22.10
2022-10-17T18:16:30.109Z,22.00
2022-10-17T18:19:01.487Z,22.00
2022-10-17T18:21:31.784Z,22.00
2022-10-17T18:24:00.134Z,22.00
2022-10-17T18:26:28.050Z,22.00
2022-10-17T18:28:55.536Z,21.90
2022-10-17T18:31:28.163Z,21.90
2022-10-17T18:33:57.830Z,21.90
2022-10-17T18:36:26.245Z,21.80
2022-10-17T18:38:54.777Z,21.80
2022-10-17T18:41:24.308Z,21.70
2022-10-17T18:43:53.516Z,21.70
2022-10-17T18:46:29.887Z,21.60
2022-10-17T18:48:57.396Z,21.60
2022-10-17T18:51:26.242Z,21.60
2022-10-17T18:53:56.036Z,21.50
2022-10-17T18:56:23.989Z,21.50
2022-10-17T18:58:52.074Z,21.40
2022-10-17T19:01:22.820Z,21.40
2022-10-17T19:03:52.779Z,21.30
2022-10-17T19:06:22.615Z,21.30
2022-10-17T19:08:50.157Z,21.20
2022-10-17T19:11:25.393Z,21.20
2022-10-17T19:13:53.836Z,21.10
2022-10-17T19:16:27.383Z,21.10
2022-10-17T19:19:06.847Z,21.00
2022-10-17T19:21:34.813Z,21.00
2022-10-17T19:24:10.156Z,20.90
2022-10-17T19:26:42.558Z,20.90
2022-10-17T19:29:14.805Z,20.90
2022-10-17T19:31:43.002Z,20.80
2022-10-17T19:34:11.834Z,20.80
2022-10-17T19:36:39.805Z,20.80
2022-10-17T19:39:18.231Z,20.70
2022-10-17T19:41:47.792Z,20.70
2022-10-17T19:44:15.976Z,20.70
2022-10-17T19:46:46.680Z,20.70
2022-10-17T19:49:14.843Z,20.60
2022-10-17T19:51:42.564Z,20.60
2022-10-17T19:54:10.373Z,20.50
2022-10-17T19:56:38.651Z,20.50
2022-10-17T19:59:07.858Z,20.50
2022-10-17T20:01:38.961Z,20.50
2022-10-17T20:04:07.693Z,20.40
2022-10-17T20:06:35.536Z,20.40
2022-10-17T20:09:04.501Z,20.30
2022-10-17T20:11:32.399Z,20.30
2022-10-17T20:14:01.248Z,20.20
2022-10-17T20:16:31.968Z,20.20
2022-10-17T20:19:07.452Z,20.20
2022-10-17T20:21:37.232Z,20.10
2022-10-17T20:24:06.511Z,20.10
2022-10-17T20:26:39.161Z,20.10
2022-10-17T20:29:10.876Z,20.10
2022-10-17T20:31:39.950Z,20.10
2022-10-17T20:34:07.415Z,20.10
2022-10-17T20:36:37.472Z,20.00
2022-10-17T20:39:06.272Z,20.00
2022-10-17T20:41:34.325Z,20.10
2022-10-17T20:44:02.002Z,20.00
2022-10-17T20:46:36.988Z,20.00
2022-10-17T20:49:06.941Z,20.00
2022-10-17T20:51:34.991Z,19.90
2022-10-17T20:54:03.016Z,19.90
2022-10-17T20:56:32.063Z,19.80
2022-10-17T20:59:01.940Z,19.80
2022-10-17T21:01:31.096Z,19.80
2022-10-17T21:04:06.151Z,19.70
2022-10-17T21:06:38.358Z,19.70
2022-10-17T21:09:06.368Z,19.70
2022-10-17T21:11:33.712Z,19.70
2022-10-17T21:14:03.555Z,19.70
2022-10-17T21:16:33.087Z,19.70
2022-10-17T21:19:00.789Z,19.70
2022-10-17T21:21:38.246Z,19.60
2022-10-17T21:24:12.565Z,19.60
2022-10-17T21:26:41.680Z,19.50
2022-10-17T21:29:11.603Z,19.50
2022-10-17T21:31:40.944Z,19.50
2022-10-17T21:34:14.293Z,19.50
2022-10-17T21:36:43.193Z,19.50
2022-10-17T21:39:11.977Z,19.50
2022-10-17T21:41:39.713Z,19.50
2022-10-17T21:44:13.425Z,19.50
2022-10-17T21:46:41.101Z,19.50
2022-10-17T21:49:12.100Z,19.40
2022-10-17T21:51:40.307Z,19.40
2022-10-17T21:54:08.429Z,19.40
2022-10-17T21:56:36.492Z,19.40
2022-10-17T21:59:04.879Z,19.30
2022-10-17T22:01:41.173Z,19.30
2022-10-17T22:04:13.048Z,19.30
2022-10-17T22:06:42.099Z,19.30
2022-10-17T22:09:18.133Z,19.20
2022-10-17T22:11:48.663Z,19.20
2022-10-17T22:14:18.714Z,19.20
2022-10-17T22:16:47.065Z,19.20
2022-10-17T22:19:16.973Z,19.20
2022-10-17T22:21:44.859Z,19.20
2022-10-17T22:24:14.391Z,19.10
2022-10-17T22:26:42.890Z,19.20
2022-10-17T22:29:11.279Z,19.10
2022-10-17T22:31:39.295Z,19.10
2022-10-17T22:34:07.220Z,19.10
2022-10-17T22:36:35.322Z,19.10
2022-10-17T22:39:02.920Z,19.00
2022-10-17T22:41:30.296Z,19.00
2022-10-17T22:43:57.684Z,19.00
2022-10-17T22:46:25.562Z,19.00
2022-10-17T22:48:52.938Z,19.00
2022-10-17T22:51:20.464Z,19.00
2022-10-17T22:53:47.872Z,18.90
2022-10-17T22:56:19.787Z,19.00
2022-10-17T22:58:47.753Z,18.90
2022-10-17T23:01:18.954Z,18.90
2022-10-17T23:03:46.719Z,18.90
2022-10-17T23:06:14.160Z,18.90
2022-10-17T23:08:41.982Z,18.80
2022-10-17T23:11:09.879Z,18.80
2022-10-17T23:13:37.626Z,18.80
2022-10-17T23:16:05.314Z,18.80
2022-10-17T23:18:32.897Z,18.70
2022-10-17T23:21:00.212Z,18.70
2022-10-17T23:23:27.632Z,18.70
2022-10-17T23:25:55.022Z,18.70
2022-10-17T23:28:22.344Z,18.70
2022-10-17T23:30:49.605Z,18.60
2022-10-17T23:33:16.978Z,18.60
2022-10-17T23:35:44.490Z,18.60
2022-10-17T23:38:11.879Z,18.60
2022-10-17T23:40:39.227Z,18.60
2022-10-17T23:43:06.567Z,18.50
2022-10-17T23:45:36.820Z,18.50
2022-10-17T23:48:05.416Z,18.50
2022-10-17T23:50:32.710Z,18.50
2022-10-17T23:53:00.016Z,18.50
2022-10-17T23:55:27.308Z,18.50
2022-10-17T23:57:54.589Z,18.50
